Terminal Aerodrome Forecast
Issued by NWS Caribou, ME

Home | Current Version | Previous Version | Text Only | Print | Product List | Glossary On
Versions: 1 2 3 4 5 6 7 8 9 10 11 12 13 14 15 16 17 18 19 20 21 22 23 24 25 26 27 28 29
550
FTUS41 KCAR 100204 AAB
TAFCAR
TAF AMD
KCAR 100204Z 1002/1024 30009G16KT P6SM BKN035
     FM101000 30007KT P6SM BKN040
     FM101200 30008KT P6SM -SHSN BKN025
     FM101400 30011G24KT P6SM -SHSN BKN025
     FM101700 31011G22KT P6SM SCT025
     FM101900 31010KT P6SM SCT200=

USA.gov is the U.S. government's official web portal to all federal, state and local government web resources and services.